Time;durP1;ratioP1;P1;durP2;ratioP2;P2;SDS_P1;SDS_P2;PMS_P1;PMS_P2;Temp;Humidity;BMP_temperature;BMP_pressure;BME280_temperature;BME280_humidity;BME280_pressure;Samples;Min_cycle;Max_cycle;Signal;HPM_P1;HPM_P2
2021/10/26 00:00:27;;;;;;;20.85;12.30;;;10.90;99.90;;;12.04;100.00;100755.84;6104184;23;20345;-81
2021/10/26 00:02:53;;;;;;;23.20;13.43;;;10.80;99.90;;;11.96;100.00;100744.88;6080018;23;20385;-82
2021/10/26 00:05:19;;;;;;;18.55;12.88;;;10.90;99.90;;;12.01;100.00;100747.38;6105413;23;20030;-83
2021/10/26 00:07:44;;;;;;;20.95;12.52;;;10.90;99.90;;;12.06;100.00;100745.13;6080883;23;20091;-81
2021/10/26 00:10:12;;;;;;;21.15;12.15;;;10.90;99.90;;;12.03;100.00;100750.66;6106688;23;20432;-82
2021/10/26 00:12:38;;;;;;;17.40;11.10;;;10.90;99.90;;;12.02;100.00;100751.81;6081316;23;20089;-81
2021/10/26 00:15:06;;;;;;;16.30;11.00;;;10.90;99.90;;;11.99;100.00;100753.34;6107585;23;20018;-81
2021/10/26 00:17:32;;;;;;;16.60;11.30;;;10.90;99.90;;;12.06;100.00;100747.13;6055881;23;20158;-80
2021/10/26 00:19:58;;;;;;;17.05;10.50;;;11.00;99.90;;;12.13;100.00;100750.06;6102711;23;20014;-80
2021/10/26 00:22:24;;;;;;;17.17;11.20;;;11.00;99.90;;;12.13;100.00;100755.69;6103366;23;20448;-80
2021/10/26 00:24:51;;;;;;;18.35;10.10;;;11.00;99.90;;;12.15;100.00;100756.94;6102053;23;20061;-81
2021/10/26 00:27:17;;;;;;;17.98;10.70;;;11.00;99.90;;;12.13;100.00;100753.69;6102263;23;20073;-82
2021/10/26 00:29:43;;;;;;;14.82;10.18;;;11.00;99.90;;;12.17;100.00;100742.53;6102324;23;20377;-82
2021/10/26 00:32:09;;;;;;;15.63;10.35;;;11.00;99.90;;;12.18;100.00;100746.97;6102866;23;20472;-80
2021/10/26 00:34:35;;;;;;;15.70;10.02;;;11.00;99.90;;;12.14;100.00;100752.50;6102644;23;20340;-81
2021/10/26 00:37:01;;;;;;;14.65;9.32;;;11.10;99.90;;;12.21;100.00;100746.25;6076391;23;20003;-80
2021/10/26 00:39:27;;;;;;;15.48;9.55;;;11.10;99.90;;;12.22;100.00;100756.28;6100104;23;20010;-83
2021/10/26 00:41:54;;;;;;;15.20;9.73;;;11.00;99.90;;;12.18;100.00;100751.75;6099942;23;20408;-82
2021/10/26 00:44:20;;;;;;;14.75;9.23;;;11.00;99.90;;;12.13;100.00;100764.06;6100060;23;20007;-82
2021/10/26 00:46:47;;;;;;;16.13;9.45;;;11.10;99.90;;;12.14;100.00;100752.50;6100202;23;20145;-82
2021/10/26 00:49:13;;;;;;;15.43;9.13;;;11.10;99.90;;;12.12;100.00;100754.84;6076783;23;20013;-82
2021/10/26 00:51:42;;;;;;;15.18;9.55;;;11.00;99.90;;;12.13;100.00;100750.06;6102199;23;20090;-79
2021/10/26 00:54:09;;;;;;;15.13;9.73;;;11.00;99.90;;;12.06;100.00;100752.72;6077114;23;20089;-83
2021/10/26 00:56:35;;;;;;;18.15;10.55;;;11.00;99.90;;;11.98;100.00;100754.53;6102860;23;20041;-80
2021/10/26 00:59:01;;;;;;;15.60;8.57;;;10.90;99.90;;;12.08;100.00;100759.56;6075807;23;20024;-81
2021/10/26 01:01:28;;;;;;;15.40;9.98;;;10.90;99.90;;;12.10;100.00;100756.41;6053501;23;20026;-84
2021/10/26 01:03:53;;;;;;;16.40;9.25;;;10.90;99.90;;;12.03;100.00;100757.06;6077317;23;20065;-82
2021/10/26 01:06:19;;;;;;;15.80;10.50;;;10.90;99.90;;;12.07;100.00;100754.34;6077030;23;20384;-81
2021/10/26 01:08:49;;;;;;;12.90;8.85;;;10.90;99.90;;;12.11;100.00;100763.63;6102566;23;20009;-83
2021/10/26 01:11:16;;;;;;;17.73;9.73;;;10.90;99.90;;;12.05;100.00;100763.09;6101422;23;20006;-82
2021/10/26 01:13:45;;;;;;;14.93;9.85;;;10.90;99.90;;;12.03;100.00;100759.03;6077565;23;20006;-82
2021/10/26 01:16:11;;;;;;;14.73;9.55;;;10.90;99.90;;;12.05;100.00;100765.91;6103744;23;20074;-84
2021/10/26 01:18:37;;;;;;;18.45;10.10;;;10.90;99.90;;;12.10;100.00;100767.59;6104985;23;20018;-84
2021/10/26 01:21:03;;;;;;;16.90;10.48;;;10.90;99.90;;;12.08;100.00;100765.16;6081253;23;20021;-82
2021/10/26 01:23:30;;;;;;;13.32;9.75;;;10.90;99.90;;;12.07;100.00;100766.31;6117359;23;20014;-82
2021/10/26 01:25:57;;;;;;;15.40;8.93;;;10.90;99.90;;;11.99;100.00;100766.53;6115015;23;20010;-82
2021/10/26 01:28:23;;;;;;;15.23;9.82;;;10.90;99.90;;;11.97;100.00;100769.72;6083933;23;20431;-82
2021/10/26 01:30:49;;;;;;;16.60;10.30;;;10.80;99.90;;;11.94;100.00;100764.84;6074993;23;20006;-82
2021/10/26 01:33:16;;;;;;;20.00;10.20;;;10.90;99.90;;;12.05;100.00;100765.06;6100563;23;20006;-83
2021/10/26 01:35:42;;;;;;;16.40;9.95;;;10.90;99.90;;;12.11;100.00;100769.22;6101076;23;20066;-80
2021/10/26 01:38:08;;;;;;;13.52;9.48;;;10.90;99.90;;;12.23;100.00;100762.69;6101081;23;20018;-81
2021/10/26 01:40:35;;;;;;;17.20;10.73;;;11.00;99.90;;;12.18;100.00;100762.97;6077940;23;20034;-81
2021/10/26 01:43:02;;;;;;;18.10;9.82;;;11.00;99.90;;;12.24;100.00;100753.09;6102873;23;20006;-82
2021/10/26 01:45:28;;;;;;;19.60;10.85;;;11.00;99.90;;;12.28;100.00;100768.00;6099854;23;20021;-82
2021/10/26 01:47:54;;;;;;;15.60;10.07;;;11.00;99.90;;;12.30;100.00;100765.63;6074151;23;20065;-83
2021/10/26 01:50:21;;;;;;;19.45;11.10;;;11.10;99.90;;;12.28;100.00;100765.19;6074883;23;20013;-82
2021/10/26 01:52:47;;;;;;;19.52;11.60;;;11.10;99.90;;;12.23;100.00;100774.72;6074328;23;20433;-81
2021/10/26 01:55:14;;;;;;;20.90;11.50;;;11.00;99.90;;;12.23;100.00;100773.91;6100556;23;20451;-81
2021/10/26 01:57:40;;;;;;;17.13;10.75;;;11.10;99.90;;;12.26;100.00;100773.97;6074599;23;20157;-81
2021/10/26 02:00:10;;;;;;;17.25;11.15;;;11.10;99.90;;;12.28;100.00;100770.78;6073008;23;20042;-81
2021/10/26 02:02:37;;;;;;;18.65;11.00;;;11.10;99.90;;;12.25;100.00;100780.75;6099349;23;20338;-81
2021/10/26 02:05:06;;;;;;;22.83;11.70;;;11.00;99.90;;;12.17;100.00;100781.75;6101214;23;20013;-83
2021/10/26 02:07:32;;;;;;;19.70;11.80;;;11.10;99.90;;;12.18;100.00;100774.97;6098741;23;20013;-83
2021/10/26 02:09:58;;;;;;;20.23;12.07;;;11.10;99.90;;;12.21;100.00;100773.44;6072923;23;20097;-81
2021/10/26 02:12:25;;;;;;;19.42;12.52;;;11.10;99.90;;;12.19;100.00;100765.41;6074404;23;20014;-84
2021/10/26 02:14:51;;;;;;;20.27;12.07;;;11.10;99.90;;;12.31;100.00;100759.66;6099706;23;20006;-80
2021/10/26 02:17:17;;;;;;;16.35;12.00;;;11.10;99.90;;;12.28;100.00;100766.00;6074285;23;20176;-84
2021/10/26 02:19:43;;;;;;;17.38;11.70;;;11.20;99.90;;;12.22;100.00;100758.25;6100166;23;20030;-82
2021/10/26 02:22:09;;;;;;;15.70;10.88;;;11.30;99.90;;;12.30;100.00;100748.81;6074821;23;20097;-84
2021/10/26 02:24:35;;;;;;;18.60;11.05;;;11.30;99.90;;;12.40;100.00;100756.63;6101076;23;20010;-84
2021/10/26 02:27:01;;;;;;;16.92;11.18;;;11.30;99.90;;;12.37;100.00;100761.00;6100554;23;20007;-83
2021/10/26 02:29:27;;;;;;;20.85;11.25;;;11.20;99.90;;;12.47;100.00;100768.00;6075972;23;20069;-82
2021/10/26 02:31:55;;;;;;;18.70;11.57;;;11.30;99.90;;;12.46;100.00;100761.59;6075756;23;20002;-82
2021/10/26 02:34:21;;;;;;;21.38;11.18;;;11.20;99.90;;;12.37;100.00;100761.00;6100379;23;20006;-83
2021/10/26 02:36:48;;;;;;;20.25;12.07;;;11.30;99.90;;;12.42;100.00;100771.09;6100734;23;20010;-81
2021/10/26 02:39:14;;;;;;;18.33;11.80;;;11.20;99.90;;;12.44;100.00;100763.13;6077532;23;20385;-81
2021/10/26 02:41:40;;;;;;;19.17;11.93;;;11.20;99.90;;;12.44;100.00;100758.34;6102580;23;20348;-81
2021/10/26 02:44:07;;;;;;;18.42;10.88;;;11.30;99.90;;;12.48;100.00;100766.84;6078092;23;20014;-82
2021/10/26 02:46:33;;;;;;;20.02;12.52;;;11.30;99.90;;;12.35;100.00;100763.38;6091769;23;20116;-83
2021/10/26 02:48:59;;;;;;;19.40;11.35;;;11.30;99.90;;;12.54;100.00;100773.75;6088372;23;20432;-84
2021/10/26 02:51:25;;;;;;;23.75;12.13;;;11.30;99.90;;;12.54;100.00;100784.97;6103120;23;20057;-83
2021/10/26 02:53:52;;;;;;;19.30;12.20;;;11.30;99.90;;;12.57;100.00;100781.44;6103413;23;20006;-83
2021/10/26 02:56:18;;;;;;;25.83;12.05;;;11.30;99.90;;;12.51;100.00;100780.09;6102399;23;20030;-81
2021/10/26 02:58:45;;;;;;;16.95;10.65;;;11.40;99.90;;;12.57;100.00;100773.84;6101555;23;20521;-83
2021/10/26 03:01:11;;;;;;;19.65;11.77;;;11.40;99.90;;;12.47;100.00;100770.81;6100137;23;20424;-81
2021/10/26 03:03:38;;;;;;;19.02;11.82;;;11.30;99.90;;;12.55;100.00;100772.59;6073984;23;20369;-82
2021/10/26 03:06:05;;;;;;;19.50;11.15;;;11.40;99.90;;;12.62;100.00;100776.34;6100072;23;20013;-81
2021/10/26 03:08:32;;;;;;;15.60;11.43;;;11.30;99.90;;;12.60;100.00;100775.09;6074246;23;20010;-81
2021/10/26 03:10:58;;;;;;;19.23;12.30;;;11.30;99.90;;;12.47;100.00;100771.63;6100464;23;20006;-82
2021/10/26 03:13:24;;;;;;;20.65;12.75;;;11.40;99.90;;;12.60;100.00;100775.91;6076890;23;20093;-82
2021/10/26 03:15:50;;;;;;;19.48;11.40;;;11.40;99.90;;;12.59;100.00;100777.06;6102464;23;20081;-81
2021/10/26 03:18:17;;;;;;;19.98;11.93;;;11.30;99.90;;;12.60;100.00;100777.88;6102110;23;20432;-80
2021/10/26 03:20:43;;;;;;;17.75;12.20;;;11.40;99.90;;;12.60;100.00;100773.09;6100920;23;20017;-83
2021/10/26 03:23:11;;;;;;;20.33;11.88;;;11.40;99.90;;;12.56;100.00;100774.19;6075715;23;20436;-83
2021/10/26 03:25:37;;;;;;;17.90;12.18;;;11.30;99.90;;;12.59;100.00;100768.66;6100897;23;20010;-82
2021/10/26 03:28:03;;;;;;;17.48;11.32;;;11.30;99.90;;;12.55;100.00;100775.41;6101437;23;20046;-82
2021/10/26 03:30:29;;;;;;;18.40;11.38;;;11.30;99.90;;;12.54;100.00;100770.97;6076070;23;20013;-82
2021/10/26 03:32:55;;;;;;;18.63;9.80;;;11.30;99.90;;;12.55;100.00;100775.41;6075519;23;20089;-84
2021/10/26 03:35:22;;;;;;;17.95;11.95;;;11.30;99.90;;;12.52;100.00;100776.13;6100904;23;20057;-84
2021/10/26 03:37:48;;;;;;;19.48;11.70;;;11.30;99.90;;;12.54;100.00;100773.75;6100167;23;20010;-82
2021/10/26 03:40:14;;;;;;;17.27;11.10;;;11.30;99.90;;;12.54;100.00;100782.97;6101794;23;20014;-84
2021/10/26 03:42:41;;;;;;;16.92;12.00;;;11.30;99.90;;;12.54;100.00;100780.19;6102143;23;20011;-83
2021/10/26 03:45:09;;;;;;;19.85;12.57;;;11.40;99.90;;;12.59;100.00;100777.06;6101221;23;20011;-83
2021/10/26 03:47:47;;;;;;;21.30;12.40;;;11.30;99.90;;;12.58;100.00;100775.47;6102726;23;20002;-84
2021/10/26 03:50:16;;;;;;;24.20;12.05;;;11.30;99.90;;;12.59;100.00;100770.66;6102615;23;20077;-83
2021/10/26 03:52:43;;;;;;;19.65;12.75;;;11.30;99.90;;;12.58;100.00;100785.88;6076556;23;20062;-81
2021/10/26 03:55:11;;;;;;;28.77;13.30;;;11.30;99.90;;;12.61;100.00;100785.94;6102450;23;20006;-82
2021/10/26 03:57:37;;;;;;;20.02;13.15;;;11.40;99.90;;;12.62;100.00;100786.72;6101712;23;20010;-82
2021/10/26 04:00:07;;;;;;;22.25;11.80;;;11.40;99.90;;;12.65;100.00;100792.41;6106250;23;20061;-81
2021/10/26 04:02:38;;;;;;;20.88;11.52;;;11.40;99.90;;;12.63;100.00;100791.97;6083767;23;20038;-80
2021/10/26 04:07:56;;;;;;;20.73;12.93;;;11.40;99.90;;;12.64;100.00;100804.00;6115558;23;20010;-81
2021/10/26 04:10:35;;;;;;;20.83;11.38;;;11.40;99.90;;;12.63;100.00;100800.38;6096113;23;20007;-84
2021/10/26 04:13:02;;;;;;;21.58;12.60;;;11.40;99.90;;;12.61;100.00;100797.16;6082400;23;20106;-83
2021/10/26 04:15:30;;;;;;;21.08;12.75;;;11.40;99.90;;;12.61;100.00;100794.34;6076393;23;20018;-81
2021/10/26 04:17:56;;;;;;;22.00;12.68;;;11.40;99.90;;;12.59;100.00;100801.47;6076620;23;20508;-81
2021/10/26 04:20:22;;;;;;;20.70;12.70;;;11.40;99.90;;;12.60;100.00;100798.31;6101274;23;20014;-80
2021/10/26 04:22:48;;;;;;;25.58;13.18;;;11.40;99.90;;;12.54;100.00;100807.38;6074644;23;20073;-83
2021/10/26 04:25:13;;;;;;;21.52;13.05;;;11.30;99.90;;;12.62;100.00;100809.16;6073813;23;20015;-84
2021/10/26 04:27:39;;;;;;;21.30;13.48;;;11.30;99.90;;;12.58;100.00;100808.28;6100861;23;20003;-83
2021/10/26 04:30:07;;;;;;;20.73;12.63;;;11.40;99.90;;;12.63;100.00;100810.78;6101764;23;20002;-83
2021/10/26 04:32:33;;;;;;;23.02;14.00;;;11.30;99.90;;;12.60;100.00;100805.91;6075975;23;20429;-84
2021/10/26 04:34:59;;;;;;;28.83;14.88;;;11.40;99.90;;;12.56;100.00;100813.41;6101930;23;20002;-83
2021/10/26 04:37:25;;;;;;;23.90;14.30;;;11.40;99.90;;;12.60;100.00;100823.53;6077106;23;20397;-82
2021/10/26 04:39:51;;;;;;;26.45;15.57;;;11.30;99.90;;;12.58;100.00;100816.69;6076553;23;20003;-82
2021/10/26 04:42:19;;;;;;;22.75;12.90;;;11.40;99.90;;;12.63;100.00;100825.59;6076430;23;20340;-82
2021/10/26 04:44:45;;;;;;;31.00;15.07;;;11.40;99.90;;;12.67;100.00;100831.28;6076741;23;20021;-82
2021/10/26 04:47:11;;;;;;;34.75;15.85;;;11.40;99.90;;;12.61;100.00;100824.34;6076435;23;20089;-85
2021/10/26 04:49:37;;;;;;;23.27;15.70;;;11.30;99.90;;;12.67;100.00;100837.72;6101787;23;20353;-84
2021/10/26 04:52:03;;;;;;;26.33;16.17;;;11.40;99.90;;;12.66;100.00;100827.66;6101750;23;20011;-84
2021/10/26 04:54:29;;;;;;;26.83;14.95;;;11.40;99.90;;;12.67;100.00;100823.69;6075862;23;20007;-82
2021/10/26 04:56:56;;;;;;;23.92;15.40;;;11.40;99.90;;;12.73;100.00;100835.41;6100201;23;20010;-81
2021/10/26 04:59:21;;;;;;;26.27;15.77;;;11.40;99.90;;;12.64;100.00;100829.22;6102483;23;20038;-83
2021/10/26 05:01:47;;;;;;;25.95;15.02;;;11.40;99.90;;;12.66;100.00;100838.88;6077331;23;20014;-83
2021/10/26 05:04:13;;;;;;;23.77;14.88;;;11.40;99.90;;;12.63;100.00;100834.00;6103065;23;20011;-83
2021/10/26 05:06:39;;;;;;;34.47;17.45;;;11.40;99.90;;;12.63;100.00;100836.81;6080555;23;20006;-84
2021/10/26 05:09:05;;;;;;;27.50;17.52;;;11.40;99.90;;;12.66;100.00;100833.28;6115315;23;20009;-84
2021/10/26 05:11:31;;;;;;;24.83;15.98;;;11.40;99.90;;;12.69;100.00;100831.72;6105490;23;20361;-83
2021/10/26 05:13:56;;;;;;;26.30;17.08;;;11.40;99.90;;;12.66;100.00;100829.66;6074137;23;20065;-83
2021/10/26 05:16:25;;;;;;;26.98;15.48;;;11.40;99.90;;;12.71;100.00;100849.00;6073848;23;20396;-83
2021/10/26 05:18:54;;;;;;;29.85;16.02;;;11.40;99.90;;;12.69;100.00;100846.53;6098531;23;20432;-82
2021/10/26 05:21:21;;;;;;;23.08;15.23;;;11.40;99.90;;;12.65;100.00;100848.44;6100451;23;20317;-83
2021/10/26 05:23:51;;;;;;;28.92;17.38;;;11.40;99.90;;;12.63;100.00;100842.41;6099544;23;20274;-81
2021/10/26 05:26:20;;;;;;;29.67;17.33;;;11.40;99.90;;;12.51;100.00;100842.56;6099909;23;20018;-85
2021/10/26 05:28:48;;;;;;;27.38;17.20;;;11.40;99.90;;;12.57;100.00;100846.69;6100189;23;20006;-84
2021/10/26 05:31:17;;;;;;;26.98;16.15;;;11.40;99.90;;;12.58;100.00;100850.31;6099951;23;20013;-83
2021/10/26 05:33:44;;;;;;;30.77;16.77;;;11.40;99.90;;;12.64;100.00;100857.25;6099867;23;20028;-85
2021/10/26 05:36:11;;;;;;;28.80;16.17;;;11.30;99.90;;;12.64;100.00;100858.06;6100451;23;20018;-82
2021/10/26 05:38:37;;;;;;;28.13;16.13;;;11.40;99.90;;;12.61;100.00;100849.56;6073762;23;20010;-82
2021/10/26 05:41:04;;;;;;;32.35;16.42;;;11.30;99.90;;;12.62;100.00;100859.59;6098352;23;20067;-82
2021/10/26 05:43:31;;;;;;;30.60;16.88;;;11.30;99.90;;;12.58;100.00;100853.94;6100033;23;20061;-82
2021/10/26 05:45:57;;;;;;;31.20;18.05;;;11.40;99.90;;;12.61;100.00;100872.81;6098231;23;20006;-84
2021/10/26 05:48:24;;;;;;;27.08;16.15;;;11.30;99.90;;;12.60;100.00;100868.38;6098217;23;20013;-84
2021/10/26 05:50:50;;;;;;;31.70;16.58;;;11.30;99.90;;;12.52;100.00;100863.78;6097527;23;20443;-82
2021/10/26 05:53:16;;;;;;;30.70;17.60;;;11.30;99.90;;;12.56;100.00;100866.66;6097220;23;20016;-83
2021/10/26 05:55:43;;;;;;;36.33;17.98;;;11.30;99.90;;;12.49;100.00;100870.09;6072951;23;20010;-84
2021/10/26 05:58:13;;;;;;;30.02;17.63;;;11.40;99.90;;;12.54;100.00;100852.22;6098463;23;20013;-82
2021/10/26 06:00:42;;;;;;;31.00;18.25;;;11.30;99.90;;;12.48;100.00;100865.69;6098140;23;20017;-84
2021/10/26 06:03:09;;;;;;;33.90;17.92;;;11.30;99.90;;;12.45;100.00;100857.22;6098487;23;20034;-83
2021/10/26 06:05:35;;;;;;;30.70;17.20;;;11.30;99.90;;;12.55;100.00;100854.63;6099015;23;20006;-82
2021/10/26 06:08:03;;;;;;;34.55;16.50;;;11.30;99.90;;;12.45;100.00;100865.63;6073180;23;20025;-84
2021/10/26 06:10:30;;;;;;;28.20;15.40;;;11.40;99.90;;;12.47;100.00;100869.66;6098529;23;20436;-82
2021/10/26 06:13:08;;;;;;;29.77;15.65;;;11.40;99.90;;;12.45;100.00;100872.03;6098518;23;20369;-83
2021/10/26 06:15:34;;;;;;;27.67;14.88;;;11.40;99.90;;;12.53;100.00;100878.59;6072777;23;20006;-83
2021/10/26 06:18:00;;;;;;;24.05;13.85;;;11.40;99.90;;;12.60;100.00;100873.16;6098176;23;20011;-82
2021/10/26 06:20:26;;;;;;;29.52;15.20;;;11.40;99.90;;;12.57;100.00;100885.91;6098277;23;20336;-84
2021/10/26 06:22:52;;;;;;;23.30;14.85;;;11.40;99.90;;;12.53;100.00;100887.81;6098256;23;20007;-83
2021/10/26 06:25:18;;;;;;;23.05;14.18;;;11.40;99.90;;;12.58;100.00;100890.34;6098861;23;20006;-82
2021/10/26 06:27:45;;;;;;;23.33;13.63;;;11.40;99.90;;;12.64;100.00;100902.06;6096463;23;20322;-82
2021/10/26 06:30:11;;;;;;;26.58;14.18;;;11.40;99.90;;;12.66;100.00;100905.31;6073031;23;20051;-82
2021/10/26 06:32:44;;;;;;;24.98;15.00;;;11.40;99.90;;;12.61;100.00;100908.41;6098292;23;20448;-83
2021/10/26 06:35:12;;;;;;;23.52;13.18;;;11.40;99.90;;;12.67;100.00;100913.38;6073200;23;20384;-81
2021/10/26 06:37:43;;;;;;;23.33;14.23;;;11.40;99.90;;;12.65;100.00;100918.50;6098156;23;20058;-83
2021/10/26 06:40:13;;;;;;;23.25;14.15;;;11.40;99.90;;;12.69;100.00;100927.00;6072646;23;20089;-83
2021/10/26 06:42:41;;;;;;;22.52;13.38;;;11.40;99.90;;;12.68;100.00;100923.38;6072829;23;20037;-85
2021/10/26 06:45:09;;;;;;;23.60;14.02;;;11.40;99.90;;;12.62;100.00;100932.44;6073827;23;20034;-82
2021/10/26 06:47:36;;;;;;;30.65;12.85;;;11.50;99.90;;;12.72;100.00;100923.47;6075411;23;20408;-84
2021/10/26 06:50:05;;;;;;;22.80;13.00;;;11.50;99.90;;;12.73;100.00;100929.88;6075732;23;20007;-84
2021/10/26 06:52:32;;;;;;;25.00;12.85;;;11.50;99.90;;;12.74;100.00;100937.13;6101920;23;20036;-84
2021/10/26 06:55:00;;;;;;;19.73;11.98;;;11.50;99.90;;;12.75;100.00;100939.53;6075296;23;20006;-84
2021/10/26 06:57:27;;;;;;;21.20;11.85;;;11.50;99.90;;;12.73;100.00;100944.72;6103324;23;20235;-83
2021/10/26 06:59:53;;;;;;;20.33;11.63;;;11.50;99.90;;;12.78;100.00;100949.25;6100831;23;20289;-84
2021/10/26 07:02:19;;;;;;;23.05;12.25;;;11.50;99.90;;;12.82;100.00;100962.13;6102153;23;20005;-85
2021/10/26 07:04:46;;;;;;;21.27;11.32;;;11.50;99.90;;;12.77;100.00;100956.84;6101867;23;20003;-84
2021/10/26 07:07:12;;;;;;;27.95;12.45;;;11.50;99.90;;;12.72;100.00;100953.47;6078048;23;20005;-84
2021/10/26 07:09:38;;;;;;;21.05;11.35;;;11.50;99.90;;;12.69;100.00;100960.63;6103316;23;20074;-83
2021/10/26 07:12:06;;;;;;;21.05;11.45;;;11.50;99.90;;;12.78;100.00;100952.81;6102521;23;20002;-83
2021/10/26 07:14:32;;;;;;;21.58;10.85;;;11.60;99.90;;;12.85;100.00;100963.41;6075281;23;20010;-82
2021/10/26 07:16:58;;;;;;;17.25;11.23;;;11.60;99.90;;;12.84;100.00;100959.00;6103058;23;20006;-85
2021/10/26 07:19:24;;;;;;;22.63;10.60;;;11.70;99.90;;;12.89;100.00;100959.50;6078609;23;20093;-84
2021/10/26 07:21:51;;;;;;;18.48;10.85;;;11.60;99.90;;;12.93;100.00;100968.00;6078015;23;20046;-84
2021/10/26 07:24:17;;;;;;;16.40;10.32;;;11.70;99.90;;;12.94;100.00;100964.03;6101325;23;20406;-86
2021/10/26 07:26:44;;;;;;;17.80;9.65;;;11.70;99.90;;;12.90;100.00;100966.75;6078803;23;20093;-84
2021/10/26 07:29:10;;;;;;;22.08;9.18;;;11.70;99.90;;;13.01;100.00;100969.75;6110082;23;20009;-85
2021/10/26 07:31:36;;;;;;;17.80;9.35;;;11.70;99.90;;;12.88;100.00;100962.66;6101828;23;20007;-82
2021/10/26 07:34:02;;;;;;;11.38;8.07;;;11.80;99.90;;;13.00;100.00;100962.56;6100919;23;20003;-84
2021/10/26 07:36:35;;;;;;;16.10;8.60;;;11.80;99.90;;;13.02;100.00;100972.22;6075866;23;20014;-85
2021/10/26 07:39:04;;;;;;;13.00;8.00;;;11.80;99.90;;;13.05;100.00;100976.28;6101638;23;20010;-85
2021/10/26 07:41:30;;;;;;;18.60;8.65;;;11.80;99.90;;;13.01;100.00;100976.19;6101174;23;20386;-85
2021/10/26 07:43:56;;;;;;;13.55;7.85;;;11.80;99.90;;;13.07;100.00;100974.72;6100974;23;20010;-84
2021/10/26 07:46:22;;;;;;;14.07;8.63;;;11.90;99.90;;;13.11;100.00;100975.66;6074867;23;20018;-85
2021/10/26 07:48:49;;;;;;;18.30;9.20;;;11.90;99.90;;;13.07;100.00;100980.31;6100950;23;20003;-85
2021/10/26 07:51:15;;;;;;;15.55;8.65;;;11.90;99.90;;;13.24;100.00;100979.13;6101443;23;20007;-84
2021/10/26 07:53:41;;;;;;;17.92;9.75;;;12.00;99.90;;;13.18;100.00;100975.00;6101076;23;20010;-84
2021/10/26 07:56:08;;;;;;;18.75;9.10;;;12.00;99.90;;;13.18;100.00;100975.81;6099068;23;20042;-82
2021/10/26 07:58:38;;;;;;;17.75;9.23;;;12.00;99.90;;;13.22;100.00;100983.47;6100935;23;20067;-84
2021/10/26 08:01:05;;;;;;;13.23;8.35;;;12.00;99.90;;;13.30;100.00;100990.84;6101264;23;20085;-83
2021/10/26 08:03:31;;;;;;;14.85;9.00;;;12.10;99.90;;;13.20;100.00;100983.84;6074681;23;20014;-85
2021/10/26 08:05:56;;;;;;;11.85;7.85;;;12.10;99.90;;;13.38;100.00;100987.84;6075954;23;20015;-84
2021/10/26 08:08:23;;;;;;;16.65;8.65;;;12.10;99.90;;;13.43;100.00;101001.56;6074604;23;20006;-84
2021/10/26 08:10:49;;;;;;;14.82;8.00;;;12.20;99.90;;;13.50;100.00;100992.50;6075078;23;20013;-85
2021/10/26 08:13:15;;;;;;;17.58;8.40;;;12.20;99.90;;;13.39;100.00;100994.28;6099647;23;20025;-80
2021/10/26 08:15:41;;;;;;;15.27;7.38;;;12.20;99.90;;;13.49;100.00;100993.66;6074240;23;20057;-81
2021/10/26 08:18:07;;;;;;;14.05;7.75;;;12.30;99.90;;;13.49;100.00;100993.66;6101117;23;20065;-80
2021/10/26 08:20:34;;;;;;;18.17;7.70;;;12.20;99.90;;;13.59;100.00;100988.28;6108192;23;20014;-81
2021/10/26 08:23:00;;;;;;;13.60;7.20;;;12.30;99.90;;;13.71;100.00;100992.91;6103129;23;20011;-81
2021/10/26 08:25:29;;;;;;;15.65;7.45;;;12.40;99.90;;;13.72;100.00;100997.34;6102040;23;20006;-81
2021/10/26 08:27:59;;;;;;;16.13;7.20;;;12.40;99.90;;;13.80;99.69;101004.75;6100375;23;20265;-83
2021/10/26 08:35:51;;;;;;;14.00;7.40;;;12.50;99.90;;;13.81;98.51;101033.59;6111652;23;20029;-82
2021/10/26 08:38:18;;;;;;;15.40;7.38;;;12.50;99.90;;;13.72;98.69;101031.84;6076989;23;20010;-82
2021/10/26 08:40:48;;;;;;;17.02;6.70;;;12.50;99.90;;;13.85;98.71;101026.91;6118829;23;20021;-80
2021/10/26 08:43:23;;;;;;;12.25;6.38;;;12.50;99.90;;;13.93;98.14;101020.25;6102889;23;19998;-80
2021/10/26 08:45:51;;;;;;;10.75;5.97;;;12.60;99.90;;;13.88;97.57;101030.94;6099831;23;20014;-82
2021/10/26 08:48:24;;;;;;;11.40;6.30;;;12.60;99.90;;;13.82;97.92;101027.63;6075516;23;20011;-82
2021/10/26 08:50:56;;;;;;;17.08;5.97;;;12.50;99.90;;;13.71;97.40;101035.84;6051306;23;20010;-82
2021/10/26 08:53:26;;;;;;;16.30;6.82;;;12.50;99.90;;;13.63;98.90;101031.28;6053882;23;20013;-81
2021/10/26 08:55:56;;;;;;;16.30;6.25;;;12.40;99.90;;;13.73;98.67;101029.88;6075015;23;20011;-83
2021/10/26 08:58:28;;;;;;;15.90;6.93;;;12.40;99.90;;;13.74;98.30;101031.50;6053084;23;20014;-83
2021/10/26 09:01:01;;;;;;;11.77;6.50;;;12.40;99.90;;;13.66;97.77;101038.94;6102065;23;20076;-82
2021/10/26 09:03:37;;;;;;;13.38;6.28;;;12.50;99.90;;;13.67;97.82;101034.16;6080641;23;20038;-82
2021/10/26 09:06:08;;;;;;;12.63;6.53;;;12.40;99.90;;;13.77;97.23;101030.75;6031793;23;20078;-81
2021/10/26 09:08:37;;;;;;;14.45;6.82;;;12.50;99.90;;;13.74;97.36;101028.69;6054885;23;20133;-81
2021/10/26 09:11:20;;;;;;;13.75;6.30;;;12.50;99.90;;;13.97;96.49;101021.09;6054201;23;20018;-82
2021/10/26 09:16:40;;;;;;;18.27;6.78;;;12.80;99.90;;;14.35;95.07;101028.69;6102525;23;20098;-83
2021/10/26 09:19:26;;;;;;;13.05;6.10;;;13.00;99.90;;;14.43;93.38;101023.97;6078744;23;20025;-85
2021/10/26 09:22:03;;;;;;;18.48;6.82;;;13.10;99.90;;;14.36;93.81;101027.47;6078084;23;20014;-84
2021/10/26 09:24:33;;;;;;;16.67;6.20;;;13.20;99.90;;;14.33;94.04;101031.03;6078635;23;20078;-82
2021/10/26 09:27:04;;;;;;;20.95;5.95;;;13.10;99.90;;;14.25;93.88;101023.66;6076244;23;20391;-82
2021/10/26 09:29:48;;;;;;;9.55;5.65;;;13.10;99.90;;;14.37;93.83;101022.69;6103784;23;20014;-84
2021/10/26 09:32:21;;;;;;;10.73;5.82;;;13.20;99.90;;;14.68;91.95;101022.41;6078188;23;20006;-82
2021/10/26 09:35:00;;;;;;;10.15;5.25;;;13.30;99.90;;;14.67;91.55;101015.16;6103064;23;20062;-82
2021/10/26 09:37:41;;;;;;;12.43;5.43;;;13.40;99.90;;;14.77;91.21;101014.50;6102090;23;20041;-83
2021/10/26 09:40:10;;;;;;;12.00;4.78;;;13.40;99.90;;;14.63;91.75;101009.50;6032968;23;20392;-81
2021/10/26 09:42:51;;;;;;;12.88;5.63;;;13.40;99.90;;;14.58;91.26;101011.78;6078205;23;20006;-84
2021/10/26 09:45:26;;;;;;;16.30;5.88;;;13.40;99.90;;;14.63;91.29;101008.66;6104013;23;20143;-83
2021/10/26 09:48:20;;;;;;;14.00;4.88;;;13.50;99.90;;;14.68;91.07;101006.34;6102778;23;20317;-81
2021/10/26 09:50:48;;;;;;;14.85;5.35;;;13.50;99.90;;;14.75;90.37;101017.72;6078376;23;20002;-81
2021/10/26 09:53:17;;;;;;;13.63;5.55;;;13.50;99.90;;;14.71;90.66;101018.81;6078882;23;20002;-82
2021/10/26 09:55:48;;;;;;;8.20;4.15;;;13.50;99.90;;;15.01;89.66;101014.09;6092871;23;20037;-82
2021/10/26 09:58:24;;;;;;;9.80;4.88;;;13.70;99.90;;;15.35;88.90;101025.44;6121901;23;20010;-79
2021/10/26 10:00:52;;;;;;;10.93;4.50;;;13.90;99.90;;;15.50;87.49;101013.19;6067620;23;20007;-81
2021/10/26 10:03:24;;;;;;;11.15;4.55;;;14.00;99.90;;;15.65;86.14;101014.97;6109397;23;20067;-82
2021/10/26 10:05:54;;;;;;;10.13;4.45;;;14.20;99.90;;;16.19;85.08;101018.00;6057597;23;20014;-81
2021/10/26 10:08:35;;;;;;;7.93;4.90;;;14.60;99.90;;;16.47;83.10;101017.44;6104748;23;20300;-83
2021/10/26 10:11:22;;;;;;;13.07;4.00;;;14.90;99.90;;;16.27;82.71;101025.34;6088870;23;20011;-79